Corona Australe — IKVF2 — position and weather

sailwx.info

Track history (hours):
 
Tides and Currents Weather Stations Pressure Air Temp Water Temp Dewpoint Dewpoint Depression Visibility Wind Speed Wind Dir Waves Ship Positions

Corona Australe

Last reported at 2017-Sep-24 06:30 UTC. Time now 2017-Sep-24 06:46 UTC.
Position N 44°24' E 008°52'.

Length 165 m; draft 7.8 m.

Type: Cargo ship. MMSI: 247257200.

Date/timePositionNaut miles runAvg speedWind from/ knotsBaromVisibWave heightAir tempDewpointWater temp
2017-Sep-24 06:30N 44°24' E 008°52'0 0.0
2017-Sep-24 06:00N 44°24' E 008°52'0 0.0
2017-Sep-24 05:30N 44°24' E 008°52'0 0.0
2017-Sep-24 05:00N 44°24' E 008°52'0 0.0
2017-Sep-24 04:30N 44°24' E 008°52'0 0.0
2017-Sep-24 04:00N 44°24' E 008°52'0 0.0
2017-Sep-24 03:30N 44°24' E 008°52'0 0.0
2017-Sep-24 03:00N 44°24' E 008°52'0 0.0
2017-Sep-24 02:30N 44°24' E 008°52'0 0.0
2017-Sep-24 02:00N 44°24' E 008°52'0 0.0
2017-Sep-24 01:30N 44°24' E 008°52'0 0.0
2017-Sep-24 01:00N 44°24' E 008°52'0 0.0
2017-Sep-24 00:30N 44°24' E 008°52'0 0.0
2017-Sep-24 00:00N 44°24' E 008°52'0 0.0
2017-Sep-23 23:27N 44°24' E 008°52'0 0.0
2017-Sep-23 22:54N 44°24' E 008°52'0 0.0
2017-Sep-23 22:30N 44°24' E 008°52'0 0.0
2017-Sep-23 21:57N 44°24' E 008°52'0 0.0
2017-Sep-23 21:30N 44°24' E 008°52'0 0.0
2017-Sep-23 20:57N 44°24' E 008°52'0 0.0
2017-Sep-23 20:30N 44°24' E 008°52'0 0.0
2017-Sep-23 20:00N 44°24' E 008°52'79 1.9
2017-Sep-22 02:00N 43°25' E 010°04'611.1
2017-Sep-22 01:30N 43°20' E 010°08'610.9
2017-Sep-22 00:59N 43°15' E 010°11'710.9
2017-Sep-22 00:21N 43°09' E 010°16'31210.9
2017-Sep-20 19:39N 39°39' E 015°23'37 9.8
2017-Sep-20 15:53N 39°02' E 015°31'610.2
2017-Sep-20 15:20N 38°57' E 015°32'410.4
2017-Sep-20 14:59N 38°53' E 015°32'9 8.6
2017-Sep-20 13:59N 38°45' E 015°35'5 9.9
2017-Sep-20 13:30N 38°40' E 015°36'510.1
2017-Sep-20 12:58N 38°35' E 015°38'510.1
2017-Sep-20 12:30N 38°30' E 015°39'510.0
2017-Sep-20 12:00N 38°25' E 015°40'4 8.3
2017-Sep-20 11:30N 38°21' E 015°42'2 4.0
2017-Sep-20 11:00N 38°19' E 015°42'5 9.0
2017-Sep-20 10:30N 38°15' E 015°40'4 7.0
2017-Sep-20 10:00N 38°13' E 015°37'510.7
2017-Sep-20 09:30N 38°08' E 015°36'3 6.3
2017-Sep-20 09:00N 38°05' E 015°36'1 1.3
2017-Sep-20 08:30N 38°04' E 015°37'611.1
2017-Sep-20 08:00N 37°59' E 015°38'710.8
2017-Sep-20 07:24N 37°54' E 015°45'13110.2
2017-Sep-19 18:33N 39°46' E 017°12'211.5
2017-Sep-19 18:21N 39°49' E 017°11'411.4
2017-Sep-19 18:00N 39°53' E 017°11'611.3
2017-Sep-19 17:30N 39°58' E 017°10'611.2
2017-Sep-19 17:00N 40°04' E 017°09'611.5
2017-Sep-19 16:30N 40°09' E 017°09'611.6
2017-Sep-19 16:00N 40°15' E 017°08'611.5
2017-Sep-19 15:30N 40°21' E 017°07'5 9.8
2017-Sep-19 15:01N 40°26' E 017°10'4 7.6
2017-Sep-19 14:30N 40°29' E 017°13'0 0.3
2017-Sep-19 14:00N 40°29' E 017°13'0 0.0
2017-Sep-19 13:30N 40°29' E 017°13'0 0.0
2017-Sep-19 13:00N 40°29' E 017°13'0 0.0
2017-Sep-19 12:28N 40°29' E 017°13'0 0.0
2017-Sep-19 12:01N 40°29' E 017°13'0 0.0
2017-Sep-19 11:31N 40°29' E 017°13'0 0.0
2017-Sep-19 11:01N 40°29' E 017°13'0 0.0
2017-Sep-19 10:28N 40°29' E 017°13'0 0.0
2017-Sep-19 10:01N 40°29' E 017°13'0 0.0
2017-Sep-19 09:30N 40°29' E 017°13'0 0.0
2017-Sep-19 08:58N 40°29' E 017°13'0 0.0
2017-Sep-19 08:27N 40°29' E 017°13'0 0.0
2017-Sep-19 08:00N 40°29' E 017°13'0 0.0
2017-Sep-19 07:27N 40°29' E 017°13'0 0.0
2017-Sep-19 06:58N 40°29' E 017°13'0 0.1
2017-Sep-19 06:30N 40°29' E 017°13'0 0.4
2017-Sep-19 06:00N 40°28' E 017°13'1 1.6
2017-Sep-19 05:30N 40°28' E 017°13'5 9.4
2017-Sep-19 05:00N 40°24' E 017°08'2 3.2
2017-Sep-19 04:30N 40°24' E 017°06'2 3.5
2017-Sep-19 04:00N 40°23' E 017°08'5 9.9
2017-Sep-19 03:30N 40°20' E 017°13'510.3
2017-Sep-19 03:00N 40°16' E 017°19'510.4
2017-Sep-19 02:30N 40°13' E 017°24'510.2
2017-Sep-19 02:00N 40°10' E 017°29'510.0
2017-Sep-19 01:30N 40°06' E 017°33'510.1
2017-Sep-19 01:00N 40°03' E 017°38'510.1
2017-Sep-19 00:29N 39°59' E 017°43'610.2
2017-Sep-18 23:54N 39°56' E 017°50'510.1
2017-Sep-18 23:25N 39°53' E 017°55'410.2
2017-Sep-18 23:00N 39°50' E 017°59'510.0
2017-Sep-18 22:30N 39°47' E 018°04'910.7
2017-Sep-18 21:42N 39°46' E 018°16'311.6
2017-Sep-18 21:26N 39°46' E 018°19'391 8.0
2017-Sep-16 20:40N 44°28' E 012°15'9 0.7
2017-Sep-16 07:44N 44°31' E 012°28'0 0.0
2017-Sep-15 20:52N 44°31' E 012°28'0 0.0
2017-Sep-15 19:45N 44°31' E 012°28'0 0.1
2017-Sep-15 19:30N 44°31' E 012°28'0 0.0
2017-Sep-15 18:53N 44°31' E 012°27'0 0.0
2017-Sep-15 18:30N 44°31' E 012°28'0 0.0
2017-Sep-15 17:58N 44°31' E 012°27'0 0.1
2017-Sep-15 17:30N 44°31' E 012°28'2 4.9
2017-Sep-15 16:59N 44°30' E 012°24'125 5.2
2017-Sep-14 16:58N 43°08' E 014°35'  
Track history (hours):
 
Tides and Currents Weather Stations Pressure Air Temp Water Temp Dewpoint Dewpoint Depression Visibility Wind Speed Wind Dir Waves Ship Positions

Corona Australe

Last reported at 2017-Sep-24 06:30 UTC. Time now 2017-Sep-24 06:46 UTC.
Position N 44°24' E 008°52'.

Length 165 m; draft 7.8 m.

Type: Cargo ship. MMSI: 247257200.

Date/timePositionNaut miles runAvg speedWind from/ knotsBaromVisibWave heightAir tempDewpointWater temp
2017-Sep-24 06:30N 44°24' E 008°52'0 0.0
2017-Sep-24 06:00N 44°24' E 008°52'0 0.0
2017-Sep-24 05:30N 44°24' E 008°52'0 0.0
2017-Sep-24 05:00N 44°24' E 008°52'0 0.0
2017-Sep-24 04:30N 44°24' E 008°52'0 0.0
2017-Sep-24 04:00N 44°24' E 008°52'0 0.0
2017-Sep-24 03:30N 44°24' E 008°52'0 0.0
2017-Sep-24 03:00N 44°24' E 008°52'0 0.0
2017-Sep-24 02:30N 44°24' E 008°52'0 0.0
2017-Sep-24 02:00N 44°24' E 008°52'0 0.0
2017-Sep-24 01:30N 44°24' E 008°52'0 0.0
2017-Sep-24 01:00N 44°24' E 008°52'0 0.0
2017-Sep-24 00:30N 44°24' E 008°52'0 0.0
2017-Sep-24 00:00N 44°24' E 008°52'0 0.0
2017-Sep-23 23:27N 44°24' E 008°52'0 0.0
2017-Sep-23 22:54N 44°24' E 008°52'0 0.0
2017-Sep-23 22:30N 44°24' E 008°52'0 0.0
2017-Sep-23 21:57N 44°24' E 008°52'0 0.0
2017-Sep-23 21:30N 44°24' E 008°52'0 0.0
2017-Sep-23 20:57N 44°24' E 008°52'0 0.0
2017-Sep-23 20:30N 44°24' E 008°52'0 0.0
2017-Sep-23 20:00N 44°24' E 008°52'79 1.9
2017-Sep-22 02:00N 43°25' E 010°04'611.1
2017-Sep-22 01:30N 43°20' E 010°08'610.9
2017-Sep-22 00:59N 43°15' E 010°11'710.9
2017-Sep-22 00:21N 43°09' E 010°16'31210.9
2017-Sep-20 19:39N 39°39' E 015°23'37 9.8
2017-Sep-20 15:53N 39°02' E 015°31'610.2
2017-Sep-20 15:20N 38°57' E 015°32'410.4
2017-Sep-20 14:59N 38°53' E 015°32'9 8.6
2017-Sep-20 13:59N 38°45' E 015°35'5 9.9
2017-Sep-20 13:30N 38°40' E 015°36'510.1
2017-Sep-20 12:58N 38°35' E 015°38'510.1
2017-Sep-20 12:30N 38°30' E 015°39'510.0
2017-Sep-20 12:00N 38°25' E 015°40'4 8.3
2017-Sep-20 11:30N 38°21' E 015°42'2 4.0
2017-Sep-20 11:00N 38°19' E 015°42'5 9.0
2017-Sep-20 10:30N 38°15' E 015°40'4 7.0
2017-Sep-20 10:00N 38°13' E 015°37'510.7
2017-Sep-20 09:30N 38°08' E 015°36'3 6.3
2017-Sep-20 09:00N 38°05' E 015°36'1 1.3
2017-Sep-20 08:30N 38°04' E 015°37'611.1
2017-Sep-20 08:00N 37°59' E 015°38'710.8
2017-Sep-20 07:24N 37°54' E 015°45'13110.2
2017-Sep-19 18:33N 39°46' E 017°12'211.5
2017-Sep-19 18:21N 39°49' E 017°11'411.4
2017-Sep-19 18:00N 39°53' E 017°11'611.3
2017-Sep-19 17:30N 39°58' E 017°10'611.2
2017-Sep-19 17:00N 40°04' E 017°09'611.5
2017-Sep-19 16:30N 40°09' E 017°09'611.6
2017-Sep-19 16:00N 40°15' E 017°08'611.5
2017-Sep-19 15:30N 40°21' E 017°07'5 9.8
2017-Sep-19 15:01N 40°26' E 017°10'4 7.6
2017-Sep-19 14:30N 40°29' E 017°13'0 0.3
2017-Sep-19 14:00N 40°29' E 017°13'0 0.0
2017-Sep-19 13:30N 40°29' E 017°13'0 0.0
2017-Sep-19 13:00N 40°29' E 017°13'0 0.0
2017-Sep-19 12:28N 40°29' E 017°13'0 0.0
2017-Sep-19 12:01N 40°29' E 017°13'0 0.0
2017-Sep-19 11:31N 40°29' E 017°13'0 0.0
2017-Sep-19 11:01N 40°29' E 017°13'0 0.0
2017-Sep-19 10:28N 40°29' E 017°13'0 0.0
2017-Sep-19 10:01N 40°29' E 017°13'0 0.0
2017-Sep-19 09:30N 40°29' E 017°13'0 0.0
2017-Sep-19 08:58N 40°29' E 017°13'0 0.0
2017-Sep-19 08:27N 40°29' E 017°13'0 0.0
2017-Sep-19 08:00N 40°29' E 017°13'0 0.0
2017-Sep-19 07:27N 40°29' E 017°13'0 0.0
2017-Sep-19 06:58N 40°29' E 017°13'0 0.1
2017-Sep-19 06:30N 40°29' E 017°13'0 0.4
2017-Sep-19 06:00N 40°28' E 017°13'1 1.6
2017-Sep-19 05:30N 40°28' E 017°13'5 9.4
2017-Sep-19 05:00N 40°24' E 017°08'2 3.2
2017-Sep-19 04:30N 40°24' E 017°06'2 3.5
2017-Sep-19 04:00N 40°23' E 017°08'5 9.9
2017-Sep-19 03:30N 40°20' E 017°13'510.3
2017-Sep-19 03:00N 40°16' E 017°19'510.4
2017-Sep-19 02:30N 40°13' E 017°24'510.2
2017-Sep-19 02:00N 40°10' E 017°29'510.0
2017-Sep-19 01:30N 40°06' E 017°33'510.1
2017-Sep-19 01:00N 40°03' E 017°38'510.1
2017-Sep-19 00:29N 39°59' E 017°43'610.2
2017-Sep-18 23:54N 39°56' E 017°50'510.1
2017-Sep-18 23:25N 39°53' E 017°55'410.2
2017-Sep-18 23:00N 39°50' E 017°59'510.0
2017-Sep-18 22:30N 39°47' E 018°04'910.7
2017-Sep-18 21:42N 39°46' E 018°16'311.6
2017-Sep-18 21:26N 39°46' E 018°19'391 8.0
2017-Sep-16 20:40N 44°28' E 012°15'9 0.7
2017-Sep-16 07:44N 44°31' E 012°28'0 0.0
2017-Sep-15 20:52N 44°31' E 012°28'0 0.0
2017-Sep-15 19:45N 44°31' E 012°28'0 0.1
2017-Sep-15 19:30N 44°31' E 012°28'0 0.0
2017-Sep-15 18:53N 44°31' E 012°27'0 0.0
2017-Sep-15 18:30N 44°31' E 012°28'0 0.0
2017-Sep-15 17:58N 44°31' E 012°27'0 0.1
2017-Sep-15 17:30N 44°31' E 012°28'2 4.9
2017-Sep-15 16:59N 44°30' E 012°24'125 5.2
2017-Sep-14 16:58N 43°08' E 014°35'  

Dump ship's entire track history